sensor_id;sensor_type;location;lat;lon;timestamp;temperature;humidity
36800;DHT22;22752;51.960;5.886;2022-09-21T00:00:23;9.60;99.90
36800;DHT22;22752;51.960;5.886;2022-09-21T00:02:49;9.60;99.90
36800;DHT22;22752;51.960;5.886;2022-09-21T00:05:15;9.60;99.90
36800;DHT22;22752;51.960;5.886;2022-09-21T00:07:42;9.70;99.90
36800;DHT22;22752;51.960;5.886;2022-09-21T00:10:08;9.70;99.90
36800;DHT22;22752;51.960;5.886;2022-09-21T00:12:34;9.60;99.90
36800;DHT22;22752;51.960;5.886;2022-09-21T00:15:05;9.60;99.90
36800;DHT22;22752;51.960;5.886;2022-09-21T00:17:32;9.60;99.90
36800;DHT22;22752;51.960;5.886;2022-09-21T00:19:57;9.60;99.90
36800;DHT22;22752;51.960;5.886;2022-09-21T00:22:25;9.60;99.90
36800;DHT22;22752;51.960;5.886;2022-09-21T00:24:51;9.60;99.90
36800;DHT22;22752;51.960;5.886;2022-09-21T00:27:17;9.60;99.90
36800;DHT22;22752;51.960;5.886;2022-09-21T00:29:42;9.50;99.90
36800;DHT22;22752;51.960;5.886;2022-09-21T00:32:08;9.60;99.90
36800;DHT22;22752;51.960;5.886;2022-09-21T00:34:34;9.60;99.90
36800;DHT22;22752;51.960;5.886;2022-09-21T00:37:01;9.50;99.90
36800;DHT22;22752;51.960;5.886;2022-09-21T00:39:27;9.50;99.90
36800;DHT22;22752;51.960;5.886;2022-09-21T00:41:53;9.50;99.90
36800;DHT22;22752;51.960;5.886;2022-09-21T00:44:32;9.40;99.90
36800;DHT22;22752;51.960;5.886;2022-09-21T00:47:04;9.40;99.90
36800;DHT22;22752;51.960;5.886;2022-09-21T00:49:32;9.40;99.90
36800;DHT22;22752;51.960;5.886;2022-09-21T00:52:00;9.30;99.90
36800;DHT22;22752;51.960;5.886;2022-09-21T00:54:32;9.30;99.90
36800;DHT22;22752;51.960;5.886;2022-09-21T00:57:01;9.20;99.90
36800;DHT22;22752;51.960;5.886;2022-09-21T00:59:30;9.20;99.90
36800;DHT22;22752;51.960;5.886;2022-09-21T01:01:57;9.20;99.90
36800;DHT22;22752;51.960;5.886;2022-09-21T01:04:24;9.20;99.90
36800;DHT22;22752;51.960;5.886;2022-09-21T01:06:54;9.20;99.90
36800;DHT22;22752;51.960;5.886;2022-09-21T01:09:20;9.10;99.90
36800;DHT22;22752;51.960;5.886;2022-09-21T01:22:51;9.00;99.90
36800;DHT22;22752;51.960;5.886;2022-09-21T01:28:25;8.90;99.90
36800;DHT22;22752;51.960;5.886;2022-09-21T01:30:57;8.90;99.90
36800;DHT22;22752;51.960;5.886;2022-09-21T01:33:28;8.80;99.90
36800;DHT22;22752;51.960;5.886;2022-09-21T01:36:04;8.80;99.90
36800;DHT22;22752;51.960;5.886;2022-09-21T01:38:36;8.80;99.90
36800;DHT22;22752;51.960;5.886;2022-09-21T01:41:04;8.80;99.90
36800;DHT22;22752;51.960;5.886;2022-09-21T01:43:35;8.70;99.90
36800;DHT22;22752;51.960;5.886;2022-09-21T01:46:03;8.70;99.90
36800;DHT22;22752;51.960;5.886;2022-09-21T01:48:33;8.70;99.90
36800;DHT22;22752;51.960;5.886;2022-09-21T01:51:03;8.70;99.90
36800;DHT22;22752;51.960;5.886;2022-09-21T01:53:40;8.60;99.90
36800;DHT22;22752;51.960;5.886;2022-09-21T01:56:15;8.60;99.90
36800;DHT22;22752;51.960;5.886;2022-09-21T01:58:46;8.60;99.90
36800;DHT22;22752;51.960;5.886;2022-09-21T02:01:17;8.50;99.90
36800;DHT22;22752;51.960;5.886;2022-09-21T02:03:54;8.40;99.90
36800;DHT22;22752;51.960;5.886;2022-09-21T02:06:20;8.40;99.90
36800;DHT22;22752;51.960;5.886;2022-09-21T02:08:47;8.30;99.90
36800;DHT22;22752;51.960;5.886;2022-09-21T02:11:13;8.30;99.90
36800;DHT22;22752;51.960;5.886;2022-09-21T02:13:42;8.20;99.90
36800;DHT22;22752;51.960;5.886;2022-09-21T02:24:42;7.90;99.90
36800;DHT22;22752;51.960;5.886;2022-09-21T02:30:14;7.80;99.90
36800;DHT22;22752;51.960;5.886;2022-09-21T02:33:12;7.70;99.90
36800;DHT22;22752;51.960;5.886;2022-09-21T02:38:24;7.60;99.90
36800;DHT22;22752;51.960;5.886;2022-09-21T02:43:22;7.60;99.90
36800;DHT22;22752;51.960;5.886;2022-09-21T02:46:00;7.50;99.90
36800;DHT22;22752;51.960;5.886;2022-09-21T02:48:37;7.50;99.90
36800;DHT22;22752;51.960;5.886;2022-09-21T02:51:10;7.50;99.90
36800;DHT22;22752;51.960;5.886;2022-09-21T02:53:39;7.40;99.90
36800;DHT22;22752;51.960;5.886;2022-09-21T02:56:07;7.40;99.90
36800;DHT22;22752;51.960;5.886;2022-09-21T02:58:36;7.40;99.90
36800;DHT22;22752;51.960;5.886;2022-09-21T03:01:04;7.40;99.90
36800;DHT22;22752;51.960;5.886;2022-09-21T03:03:32;7.40;99.90
36800;DHT22;22752;51.960;5.886;2022-09-21T03:05:57;7.40;99.90
36800;DHT22;22752;51.960;5.886;2022-09-21T03:08:24;7.50;99.90
36800;DHT22;22752;51.960;5.886;2022-09-21T03:10:50;7.40;99.90
36800;DHT22;22752;51.960;5.886;2022-09-21T03:13:16;7.40;99.90
36800;DHT22;22752;51.960;5.886;2022-09-21T03:15:43;7.30;99.90
36800;DHT22;22752;51.960;5.886;2022-09-21T03:18:11;7.30;99.90
36800;DHT22;22752;51.960;5.886;2022-09-21T03:20:38;7.30;99.90
36800;DHT22;22752;51.960;5.886;2022-09-21T03:23:04;7.30;99.90
36800;DHT22;22752;51.960;5.886;2022-09-21T03:25:30;7.20;99.90
36800;DHT22;22752;51.960;5.886;2022-09-21T03:27:56;7.10;99.90
36800;DHT22;22752;51.960;5.886;2022-09-21T03:30:24;7.10;99.90
36800;DHT22;22752;51.960;5.886;2022-09-21T03:32:51;7.10;99.90
36800;DHT22;22752;51.960;5.886;2022-09-21T03:35:17;7.10;99.90
36800;DHT22;22752;51.960;5.886;2022-09-21T03:37:44;6.90;99.90
36800;DHT22;22752;51.960;5.886;2022-09-21T03:40:11;7.00;99.90
36800;DHT22;22752;51.960;5.886;2022-09-21T03:42:38;6.90;99.90
36800;DHT22;22752;51.960;5.886;2022-09-21T03:45:04;6.90;99.90
36800;DHT22;22752;51.960;5.886;2022-09-21T03:47:30;6.80;99.90
36800;DHT22;22752;51.960;5.886;2022-09-21T03:49:56;6.80;99.90
36800;DHT22;22752;51.960;5.886;2022-09-21T03:52:21;6.80;99.90
36800;DHT22;22752;51.960;5.886;2022-09-21T03:54:47;6.70;99.90
36800;DHT22;22752;51.960;5.886;2022-09-21T03:57:13;6.70;99.90
36800;DHT22;22752;51.960;5.886;2022-09-21T03:59:38;6.60;99.90
36800;DHT22;22752;51.960;5.886;2022-09-21T04:02:04;6.60;99.90
36800;DHT22;22752;51.960;5.886;2022-09-21T04:04:30;6.60;99.90
36800;DHT22;22752;51.960;5.886;2022-09-21T04:06:55;6.60;99.90
36800;DHT22;22752;51.960;5.886;2022-09-21T04:09:22;6.50;99.90
36800;DHT22;22752;51.960;5.886;2022-09-21T04:11:48;6.50;99.90
36800;DHT22;22752;51.960;5.886;2022-09-21T04:14:14;6.50;99.90
36800;DHT22;22752;51.960;5.886;2022-09-21T04:16:39;6.50;99.90
36800;DHT22;22752;51.960;5.886;2022-09-21T04:19:05;6.40;99.90
36800;DHT22;22752;51.960;5.886;2022-09-21T04:21:31;6.50;99.90
36800;DHT22;22752;51.960;5.886;2022-09-21T04:23:58;6.40;99.90
36800;DHT22;22752;51.960;5.886;2022-09-21T04:26:28;6.40;99.90
36800;DHT22;22752;51.960;5.886;2022-09-21T04:28:56;6.40;99.90
36800;DHT22;22752;51.960;5.886;2022-09-21T04:31:23;6.30;99.90
36800;DHT22;22752;51.960;5.886;2022-09-21T04:33:53;6.30;99.90
36800;DHT22;22752;51.960;5.886;2022-09-21T04:36:20;6.30;99.90
36800;DHT22;22752;51.960;5.886;2022-09-21T04:38:46;6.30;99.90
36800;DHT22;22752;51.960;5.886;2022-09-21T04:41:13;6.30;99.90
36800;DHT22;22752;51.960;5.886;2022-09-21T04:43:44;6.30;99.90
36800;DHT22;22752;51.960;5.886;2022-09-21T04:46:12;6.20;99.90
36800;DHT22;22752;51.960;5.886;2022-09-21T04:48:39;6.20;99.90
36800;DHT22;22752;51.960;5.886;2022-09-21T04:51:05;6.20;99.90
36800;DHT22;22752;51.960;5.886;2022-09-21T04:53:33;6.20;99.90
36800;DHT22;22752;51.960;5.886;2022-09-21T04:55:59;6.20;99.90
36800;DHT22;22752;51.960;5.886;2022-09-21T04:58:24;6.20;99.90
36800;DHT22;22752;51.960;5.886;2022-09-21T05:00:51;6.20;99.90
36800;DHT22;22752;51.960;5.886;2022-09-21T05:03:18;6.10;99.90
36800;DHT22;22752;51.960;5.886;2022-09-21T05:05:48;6.10;99.90
36800;DHT22;22752;51.960;5.886;2022-09-21T05:08:14;6.10;99.90
36800;DHT22;22752;51.960;5.886;2022-09-21T05:10:40;6.10;99.90
36800;DHT22;22752;51.960;5.886;2022-09-21T05:13:06;6.10;99.90
36800;DHT22;22752;51.960;5.886;2022-09-21T05:15:31;6.10;99.90
36800;DHT22;22752;51.960;5.886;2022-09-21T05:17:57;6.10;99.90
36800;DHT22;22752;51.960;5.886;2022-09-21T05:20:22;6.10;99.90
36800;DHT22;22752;51.960;5.886;2022-09-21T05:22:48;6.00;99.90
36800;DHT22;22752;51.960;5.886;2022-09-21T05:25:14;6.00;99.90
36800;DHT22;22752;51.960;5.886;2022-09-21T05:27:40;6.00;99.90
36800;DHT22;22752;51.960;5.886;2022-09-21T05:30:08;6.00;99.90
36800;DHT22;22752;51.960;5.886;2022-09-21T05:32:56;6.00;99.90
36800;DHT22;22752;51.960;5.886;2022-09-21T05:35:41;6.00;99.90
36800;DHT22;22752;51.960;5.886;2022-09-21T05:38:16;6.00;99.90
36800;DHT22;22752;51.960;5.886;2022-09-21T05:40:43;6.10;99.90
36800;DHT22;22752;51.960;5.886;2022-09-21T05:43:16;6.10;99.90
36800;DHT22;22752;51.960;5.886;2022-09-21T05:45:57;6.20;99.90
36800;DHT22;22752;51.960;5.886;2022-09-21T05:48:39;6.20;99.90
36800;DHT22;22752;51.960;5.886;2022-09-21T05:57:02;6.40;99.90
36800;DHT22;22752;51.960;5.886;2022-09-21T06:04:58;6.60;99.90
36800;DHT22;22752;51.960;5.886;2022-09-21T06:07:27;6.70;99.90
36800;DHT22;22752;51.960;5.886;2022-09-21T06:09:53;7.10;99.90
36800;DHT22;22752;51.960;5.886;2022-09-21T06:12:18;7.80;99.90
36800;DHT22;22752;51.960;5.886;2022-09-21T06:14:44;8.50;99.90
36800;DHT22;22752;51.960;5.886;2022-09-21T06:17:10;9.40;99.90
36800;DHT22;22752;51.960;5.886;2022-09-21T06:19:35;10.10;99.90
36800;DHT22;22752;51.960;5.886;2022-09-21T06:22:01;10.80;99.90
36800;DHT22;22752;51.960;5.886;2022-09-21T06:24:27;11.50;99.90
36800;DHT22;22752;51.960;5.886;2022-09-21T06:26:52;12.00;99.90
36800;DHT22;22752;51.960;5.886;2022-09-21T06:29:18;12.60;99.90
36800;DHT22;22752;51.960;5.886;2022-09-21T06:31:49;13.20;99.90
36800;DHT22;22752;51.960;5.886;2022-09-21T06:34:15;13.60;99.90
36800;DHT22;22752;51.960;5.886;2022-09-21T06:36:40;14.10;99.90
36800;DHT22;22752;51.960;5.886;2022-09-21T06:39:06;14.40;99.90
36800;DHT22;22752;51.960;5.886;2022-09-21T06:41:32;14.80;99.90
36800;DHT22;22752;51.960;5.886;2022-09-21T06:43:58;15.10;99.90
36800;DHT22;22752;51.960;5.886;2022-09-21T06:46:23;15.40;99.90
36800;DHT22;22752;51.960;5.886;2022-09-21T06:48:49;15.70;99.90
36800;DHT22;22752;51.960;5.886;2022-09-21T06:51:15;15.80;99.90
36800;DHT22;22752;51.960;5.886;2022-09-21T06:53:41;16.00;99.90
36800;DHT22;22752;51.960;5.886;2022-09-21T06:56:08;16.00;99.90
36800;DHT22;22752;51.960;5.886;2022-09-21T06:58:34;16.20;99.90
36800;DHT22;22752;51.960;5.886;2022-09-21T07:01:08;16.40;99.90
36800;DHT22;22752;51.960;5.886;2022-09-21T07:03:34;16.70;99.90
36800;DHT22;22752;51.960;5.886;2022-09-21T07:05:59;16.80;99.90
36800;DHT22;22752;51.960;5.886;2022-09-21T07:08:25;16.90;99.90
36800;DHT22;22752;51.960;5.886;2022-09-21T07:10:52;17.00;99.90
36800;DHT22;22752;51.960;5.886;2022-09-21T07:13:17;17.20;99.90
36800;DHT22;22752;51.960;5.886;2022-09-21T07:15:44;17.30;99.90
36800;DHT22;22752;51.960;5.886;2022-09-21T07:18:14;17.40;99.90
36800;DHT22;22752;51.960;5.886;2022-09-21T07:20:40;17.50;99.90
36800;DHT22;22752;51.960;5.886;2022-09-21T07:23:13;17.60;99.90
36800;DHT22;22752;51.960;5.886;2022-09-21T07:25:41;17.70;99.90
36800;DHT22;22752;51.960;5.886;2022-09-21T07:28:07;17.80;99.90
36800;DHT22;22752;51.960;5.886;2022-09-21T07:30:32;17.90;99.90
36800;DHT22;22752;51.960;5.886;2022-09-21T07:32:58;18.00;99.90
36800;DHT22;22752;51.960;5.886;2022-09-21T07:35:24;18.10;99.90
36800;DHT22;22752;51.960;5.886;2022-09-21T07:37:49;18.00;99.90
36800;DHT22;22752;51.960;5.886;2022-09-21T07:40:15;18.10;99.90
36800;DHT22;22752;51.960;5.886;2022-09-21T07:42:41;18.20;99.90
36800;DHT22;22752;51.960;5.886;2022-09-21T07:45:09;18.40;99.90
36800;DHT22;22752;51.960;5.886;2022-09-21T07:47:35;18.40;99.90
36800;DHT22;22752;51.960;5.886;2022-09-21T07:50:01;18.50;99.90
36800;DHT22;22752;51.960;5.886;2022-09-21T07:52:27;18.50;99.90
36800;DHT22;22752;51.960;5.886;2022-09-21T07:54:52;18.50;99.90
36800;DHT22;22752;51.960;5.886;2022-09-21T07:57:18;18.50;99.90
36800;DHT22;22752;51.960;5.886;2022-09-21T08:00:03;18.60;99.90
36800;DHT22;22752;51.960;5.886;2022-09-21T08:02:29;18.60;99.90
36800;DHT22;22752;51.960;5.886;2022-09-21T08:04:54;18.80;99.90
36800;DHT22;22752;51.960;5.886;2022-09-21T08:07:20;18.90;99.90
36800;DHT22;22752;51.960;5.886;2022-09-21T08:09:45;19.10;99.90
36800;DHT22;22752;51.960;5.886;2022-09-21T08:12:15;19.10;99.90
36800;DHT22;22752;51.960;5.886;2022-09-21T08:14:43;19.20;99.90
36800;DHT22;22752;51.960;5.886;2022-09-21T08:17:09;19.40;99.90
36800;DHT22;22752;51.960;5.886;2022-09-21T08:19:34;19.60;99.90
36800;DHT22;22752;51.960;5.886;2022-09-21T08:22:01;19.50;99.90
36800;DHT22;22752;51.960;5.886;2022-09-21T08:24:26;19.40;99.90
36800;DHT22;22752;51.960;5.886;2022-09-21T08:26:52;19.20;99.90
36800;DHT22;22752;51.960;5.886;2022-09-21T08:29:18;18.90;99.90
36800;DHT22;22752;51.960;5.886;2022-09-21T08:31:44;18.50;99.90
36800;DHT22;22752;51.960;5.886;2022-09-21T08:34:11;18.10;99.90
36800;DHT22;22752;51.960;5.886;2022-09-21T08:36:36;17.80;99.90
36800;DHT22;22752;51.960;5.886;2022-09-21T08:39:06;17.50;99.90
36800;DHT22;22752;51.960;5.886;2022-09-21T08:44:19;16.90;99.90
36800;DHT22;22752;51.960;5.886;2022-09-21T08:46:55;16.60;99.90
36800;DHT22;22752;51.960;5.886;2022-09-21T08:49:24;16.40;99.90
36800;DHT22;22752;51.960;5.886;2022-09-21T08:52:03;16.20;99.90
36800;DHT22;22752;51.960;5.886;2022-09-21T08:54:50;16.00;99.90
36800;DHT22;22752;51.960;5.886;2022-09-21T08:57:18;15.90;99.90
36800;DHT22;22752;51.960;5.886;2022-09-21T08:59:46;15.80;99.90
36800;DHT22;22752;51.960;5.886;2022-09-21T09:08:24;15.70;99.90
36800;DHT22;22752;51.960;5.886;2022-09-21T09:16:21;15.60;99.90
36800;DHT22;22752;51.960;5.886;2022-09-21T09:21:40;15.50;99.90
36800;DHT22;22752;51.960;5.886;2022-09-21T09:24:18;15.50;99.90
36800;DHT22;22752;51.960;5.886;2022-09-21T09:27:00;15.50;99.90
36800;DHT22;22752;51.960;5.886;2022-09-21T09:29:43;15.50;99.90
36800;DHT22;22752;51.960;5.886;2022-09-21T09:32:13;15.40;99.90
36800;DHT22;22752;51.960;5.886;2022-09-21T09:34:54;15.50;99.90
36800;DHT22;22752;51.960;5.886;2022-09-21T09:37:30;15.40;99.90
36800;DHT22;22752;51.960;5.886;2022-09-21T09:39:58;15.20;99.90
36800;DHT22;22752;51.960;5.886;2022-09-21T09:42:40;15.10;99.90
36800;DHT22;22752;51.960;5.886;2022-09-21T09:50:37;15.10;99.90
36800;DHT22;22752;51.960;5.886;2022-09-21T09:53:11;15.20;99.90
36800;DHT22;22752;51.960;5.886;2022-09-21T09:55:39;15.20;99.90
36800;DHT22;22752;51.960;5.886;2022-09-21T10:00:43;15.40;99.90
36800;DHT22;22752;51.960;5.886;2022-09-21T10:03:18;15.50;99.90
36800;DHT22;22752;51.960;5.886;2022-09-21T10:05:44;15.60;99.90
36800;DHT22;22752;51.960;5.886;2022-09-21T10:11:01;15.60;99.90
36800;DHT22;22752;51.960;5.886;2022-09-21T10:13:33;15.60;99.90
36800;DHT22;22752;51.960;5.886;2022-09-21T10:15:59;15.70;99.90
36800;DHT22;22752;51.960;5.886;2022-09-21T10:21:04;15.60;99.90
36800;DHT22;22752;51.960;5.886;2022-09-21T10:23:31;15.60;99.90
36800;DHT22;22752;51.960;5.886;2022-09-21T10:26:09;15.60;99.90
36800;DHT22;22752;51.960;5.886;2022-09-21T10:28:36;15.70;99.90
36800;DHT22;22752;51.960;5.886;2022-09-21T10:31:17;15.70;99.90
36800;DHT22;22752;51.960;5.886;2022-09-21T10:36:36;15.80;99.90
36800;DHT22;22752;51.960;5.886;2022-09-21T10:41:47;15.90;99.90
36800;DHT22;22752;51.960;5.886;2022-09-21T10:44:16;15.90;99.90
36800;DHT22;22752;51.960;5.886;2022-09-21T10:46:43;15.90;99.90
36800;DHT22;22752;51.960;5.886;2022-09-21T10:49:27;16.00;99.90
36800;DHT22;22752;51.960;5.886;2022-09-21T10:51:56;16.10;99.90
36800;DHT22;22752;51.960;5.886;2022-09-21T10:54:30;16.10;99.90
36800;DHT22;22752;51.960;5.886;2022-09-21T10:57:00;16.20;99.90
36800;DHT22;22752;51.960;5.886;2022-09-21T10:59:33;16.30;99.90
36800;DHT22;22752;51.960;5.886;2022-09-21T11:02:01;16.20;99.90
36800;DHT22;22752;51.960;5.886;2022-09-21T11:04:32;16.30;99.90
36800;DHT22;22752;51.960;5.886;2022-09-21T11:07:22;16.40;99.90
36800;DHT22;22752;51.960;5.886;2022-09-21T11:09:57;16.50;99.90
36800;DHT22;22752;51.960;5.886;2022-09-21T11:12:31;16.60;99.90
36800;DHT22;22752;51.960;5.886;2022-09-21T11:17:40;16.80;99.80
36800;DHT22;22752;51.960;5.886;2022-09-21T11:22:44;17.00;98.90
36800;DHT22;22752;51.960;5.886;2022-09-21T11:25:42;17.10;99.00
36800;DHT22;22752;51.960;5.886;2022-09-21T11:28:50;17.30;98.40
36800;DHT22;22752;51.960;5.886;2022-09-21T11:48:09;17.70;95.70
36800;DHT22;22752;51.960;5.886;2022-09-21T11:56:50;17.90;95.50
36800;DHT22;22752;51.960;5.886;2022-09-21T12:05:19;18.00;94.70
36800;DHT22;22752;51.960;5.886;2022-09-21T12:11:05;17.80;94.10
36800;DHT22;22752;51.960;5.886;2022-09-21T12:13:59;17.60;94.20
36800;DHT22;22752;51.960;5.886;2022-09-21T12:16:55;17.50;94.80
36800;DHT22;22752;51.960;5.886;2022-09-21T12:19:50;17.50;94.80
36800;DHT22;22752;51.960;5.886;2022-09-21T12:22:32;17.50;94.80
36800;DHT22;22752;51.960;5.886;2022-09-21T12:27:39;17.50;95.40
36800;DHT22;22752;51.960;5.886;2022-09-21T12:30:15;17.40;95.80
36800;DHT22;22752;51.960;5.886;2022-09-21T12:32:50;17.40;96.00
36800;DHT22;22752;51.960;5.886;2022-09-21T12:40:35;17.90;96.10
36800;DHT22;22752;51.960;5.886;2022-09-21T12:43:07;18.10;95.70
36800;DHT22;22752;51.960;5.886;2022-09-21T12:45:38;18.20;95.40
36800;DHT22;22752;51.960;5.886;2022-09-21T12:50:53;18.50;95.30
36800;DHT22;22752;51.960;5.886;2022-09-21T12:53:25;18.60;95.30
36800;DHT22;22752;51.960;5.886;2022-09-21T12:58:42;18.40;94.80
36800;DHT22;22752;51.960;5.886;2022-09-21T13:01:41;18.10;95.00
36800;DHT22;22752;51.960;5.886;2022-09-21T13:09:26;17.60;96.20
36800;DHT22;22752;51.960;5.886;2022-09-21T13:11:55;17.50;96.20
36800;DHT22;22752;51.960;5.886;2022-09-21T13:14:28;17.50;96.10
36800;DHT22;22752;51.960;5.886;2022-09-21T13:16:55;17.40;96.10
36800;DHT22;22752;51.960;5.886;2022-09-21T13:19:24;17.30;96.10
36800;DHT22;22752;51.960;5.886;2022-09-21T13:22:10;17.20;96.20
36800;DHT22;22752;51.960;5.886;2022-09-21T13:24:39;17.20;96.00
36800;DHT22;22752;51.960;5.886;2022-09-21T13:27:07;17.20;96.40
36800;DHT22;22752;51.960;5.886;2022-09-21T13:29:34;17.10;96.40
36800;DHT22;22752;51.960;5.886;2022-09-21T13:34:39;17.20;96.60
36800;DHT22;22752;51.960;5.886;2022-09-21T13:37:12;17.10;96.80
36800;DHT22;22752;51.960;5.886;2022-09-21T13:39:55;17.20;96.80
36800;DHT22;22752;51.960;5.886;2022-09-21T13:42:48;17.20;96.70
36800;DHT22;22752;51.960;5.886;2022-09-21T13:47:45;17.20;96.10
36800;DHT22;22752;51.960;5.886;2022-09-21T13:50:31;17.20;95.50
36800;DHT22;22752;51.960;5.886;2022-09-21T13:53:07;17.20;95.60
36800;DHT22;22752;51.960;5.886;2022-09-21T13:55:51;17.20;95.60
36800;DHT22;22752;51.960;5.886;2022-09-21T13:58:29;17.10;95.30
36800;DHT22;22752;51.960;5.886;2022-09-21T14:01:00;17.10;95.00
36800;DHT22;22752;51.960;5.886;2022-09-21T14:03:35;17.00;95.40
36800;DHT22;22752;51.960;5.886;2022-09-21T14:06:15;16.90;95.70
36800;DHT22;22752;51.960;5.886;2022-09-21T14:08:50;16.90;95.90
36800;DHT22;22752;51.960;5.886;2022-09-21T14:11:22;16.80;96.00
36800;DHT22;22752;51.960;5.886;2022-09-21T14:16:44;16.80;96.60
36800;DHT22;22752;51.960;5.886;2022-09-21T14:24:49;16.60;96.70
36800;DHT22;22752;51.960;5.886;2022-09-21T14:27:35;16.50;96.30
36800;DHT22;22752;51.960;5.886;2022-09-21T14:35:39;16.30;97.10
36800;DHT22;22752;51.960;5.886;2022-09-21T14:40:51;16.10;97.70
36800;DHT22;22752;51.960;5.886;2022-09-21T14:43:37;16.00;97.80
36800;DHT22;22752;51.960;5.886;2022-09-21T14:52:13;15.70;99.80
36800;DHT22;22752;51.960;5.886;2022-09-21T14:55:07;15.70;99.90
36800;DHT22;22752;51.960;5.886;2022-09-21T15:00:19;15.70;99.90
36800;DHT22;22752;51.960;5.886;2022-09-21T15:02:53;15.70;99.90
36800;DHT22;22752;51.960;5.886;2022-09-21T15:05:42;15.70;99.90
36800;DHT22;22752;51.960;5.886;2022-09-21T15:08:47;15.80;99.90
36800;DHT22;22752;51.960;5.886;2022-09-21T15:11:45;15.80;99.90
36800;DHT22;22752;51.960;5.886;2022-09-21T15:16:57;15.90;99.90
36800;DHT22;22752;51.960;5.886;2022-09-21T15:19:27;16.00;99.90
36800;DHT22;22752;51.960;5.886;2022-09-21T15:21:55;16.00;99.90
36800;DHT22;22752;51.960;5.886;2022-09-21T15:24:32;16.10;99.80
36800;DHT22;22752;51.960;5.886;2022-09-21T15:27:27;16.20;99.60
36800;DHT22;22752;51.960;5.886;2022-09-21T15:29:58;16.10;99.80
36800;DHT22;22752;51.960;5.886;2022-09-21T15:32:34;16.10;99.80
36800;DHT22;22752;51.960;5.886;2022-09-21T15:35:02;16.10;99.70
36800;DHT22;22752;51.960;5.886;2022-09-21T15:37:28;16.10;99.60
36800;DHT22;22752;51.960;5.886;2022-09-21T15:40:05;16.10;99.40
36800;DHT22;22752;51.960;5.886;2022-09-21T15:42:33;16.10;99.40
36800;DHT22;22752;51.960;5.886;2022-09-21T15:45:16;16.10;99.40
36800;DHT22;22752;51.960;5.886;2022-09-21T15:47:42;16.00;99.70
36800;DHT22;22752;51.960;5.886;2022-09-21T15:50:15;16.00;99.70
36800;DHT22;22752;51.960;5.886;2022-09-21T15:53:04;16.00;99.30
36800;DHT22;22752;51.960;5.886;2022-09-21T15:55:33;16.00;99.10
36800;DHT22;22752;51.960;5.886;2022-09-21T15:57:59;15.90;99.10
36800;DHT22;22752;51.960;5.886;2022-09-21T16:00:31;15.90;99.10
36800;DHT22;22752;51.960;5.886;2022-09-21T16:05:32;15.80;99.20
36800;DHT22;22752;51.960;5.886;2022-09-21T16:08:15;15.70;99.30
36800;DHT22;22752;51.960;5.886;2022-09-21T16:10:42;15.70;99.40
36800;DHT22;22752;51.960;5.886;2022-09-21T16:13:23;15.60;99.40
36800;DHT22;22752;51.960;5.886;2022-09-21T16:16:12;15.60;99.60
36800;DHT22;22752;51.960;5.886;2022-09-21T16:18:48;15.60;99.30
36800;DHT22;22752;51.960;5.886;2022-09-21T16:21:32;15.60;99.00
36800;DHT22;22752;51.960;5.886;2022-09-21T16:24:27;15.60;99.00
36800;DHT22;22752;51.960;5.886;2022-09-21T16:26:57;15.50;98.90
36800;DHT22;22752;51.960;5.886;2022-09-21T16:29:25;15.40;99.20
36800;DHT22;22752;51.960;5.886;2022-09-21T16:34:44;15.30;99.40
36800;DHT22;22752;51.960;5.886;2022-09-21T16:39:49;15.10;99.80
36800;DHT22;22752;51.960;5.886;2022-09-21T16:42:15;15.00;99.90
36800;DHT22;22752;51.960;5.886;2022-09-21T16:44:41;14.90;99.90
36800;DHT22;22752;51.960;5.886;2022-09-21T16:47:24;14.80;99.90
36800;DHT22;22752;51.960;5.886;2022-09-21T16:49:54;14.70;99.90
36800;DHT22;22752;51.960;5.886;2022-09-21T16:52:22;14.60;99.90
36800;DHT22;22752;51.960;5.886;2022-09-21T16:54:48;14.60;99.90
36800;DHT22;22752;51.960;5.886;2022-09-21T16:57:15;14.50;99.90
36800;DHT22;22752;51.960;5.886;2022-09-21T16:59:41;14.40;99.90
36800;DHT22;22752;51.960;5.886;2022-09-21T17:02:09;14.20;99.90
36800;DHT22;22752;51.960;5.886;2022-09-21T17:04:36;14.00;99.90
36800;DHT22;22752;51.960;5.886;2022-09-21T17:07:02;13.80;99.90
36800;DHT22;22752;51.960;5.886;2022-09-21T17:09:31;13.70;99.90
36800;DHT22;22752;51.960;5.886;2022-09-21T17:11:59;13.60;99.90
36800;DHT22;22752;51.960;5.886;2022-09-21T17:14:30;13.40;99.90
36800;DHT22;22752;51.960;5.886;2022-09-21T17:19:35;13.20;99.90
36800;DHT22;22752;51.960;5.886;2022-09-21T17:22:03;13.00;99.90
36800;DHT22;22752;51.960;5.886;2022-09-21T17:24:28;12.90;99.90
36800;DHT22;22752;51.960;5.886;2022-09-21T17:26:55;12.80;99.90
36800;DHT22;22752;51.960;5.886;2022-09-21T17:29:22;12.60;99.90
36800;DHT22;22752;51.960;5.886;2022-09-21T17:31:49;12.50;99.90
36800;DHT22;22752;51.960;5.886;2022-09-21T17:34:16;12.40;99.90
36800;DHT22;22752;51.960;5.886;2022-09-21T17:36:42;12.30;99.90
36800;DHT22;22752;51.960;5.886;2022-09-21T17:39:08;12.20;99.90
36800;DHT22;22752;51.960;5.886;2022-09-21T17:41:53;12.10;99.90
36800;DHT22;22752;51.960;5.886;2022-09-21T17:49:25;11.80;99.90
36800;DHT22;22752;51.960;5.886;2022-09-21T17:51:51;11.70;99.90
36800;DHT22;22752;51.960;5.886;2022-09-21T17:54:35;11.60;99.90
36800;DHT22;22752;51.960;5.886;2022-09-21T18:00:22;11.40;99.90
36800;DHT22;22752;51.960;5.886;2022-09-21T18:02:49;11.30;99.90
36800;DHT22;22752;51.960;5.886;2022-09-21T18:05:25;11.20;99.90
36800;DHT22;22752;51.960;5.886;2022-09-21T18:07:51;11.20;99.90
36800;DHT22;22752;51.960;5.886;2022-09-21T18:10:19;11.10;99.90
36800;DHT22;22752;51.960;5.886;2022-09-21T18:15:44;11.10;99.90
36800;DHT22;22752;51.960;5.886;2022-09-21T18:18:43;11.00;99.90
36800;DHT22;22752;51.960;5.886;2022-09-21T18:21:19;10.90;99.90
36800;DHT22;22752;51.960;5.886;2022-09-21T18:26:26;10.80;99.90
36800;DHT22;22752;51.960;5.886;2022-09-21T18:28:52;10.70;99.90
36800;DHT22;22752;51.960;5.886;2022-09-21T18:40:00;10.60;99.90
36800;DHT22;22752;51.960;5.886;2022-09-21T18:42:49;10.50;99.90
36800;DHT22;22752;51.960;5.886;2022-09-21T18:45:26;10.40;99.90
36800;DHT22;22752;51.960;5.886;2022-09-21T18:48:11;10.30;99.90
36800;DHT22;22752;51.960;5.886;2022-09-21T18:53:39;10.30;99.90
36800;DHT22;22752;51.960;5.886;2022-09-21T18:56:09;10.30;99.90
36800;DHT22;22752;51.960;5.886;2022-09-21T18:58:36;10.20;99.90
36800;DHT22;22752;51.960;5.886;2022-09-21T19:01:03;10.20;99.90
36800;DHT22;22752;51.960;5.886;2022-09-21T19:03:29;10.20;99.90
36800;DHT22;22752;51.960;5.886;2022-09-21T19:08:54;10.10;99.90
36800;DHT22;22752;51.960;5.886;2022-09-21T19:17:21;9.90;99.90
36800;DHT22;22752;51.960;5.886;2022-09-21T19:20:01;9.80;99.90
36800;DHT22;22752;51.960;5.886;2022-09-21T19:22:51;9.80;99.90
36800;DHT22;22752;51.960;5.886;2022-09-21T19:28:30;9.60;99.90
36800;DHT22;22752;51.960;5.886;2022-09-21T19:31:01;9.60;99.90
36800;DHT22;22752;51.960;5.886;2022-09-21T19:33:29;9.50;99.90
36800;DHT22;22752;51.960;5.886;2022-09-21T19:35:55;9.50;99.90